MSC Vienna — A8CI9 — position and weather

sailwx.info

Track history (hours):
 
Tides and Currents Weather Stations Pressure Air Temp Water Temp Dewpoint Dewpoint Depression Visibility Wind Speed Wind Dir Waves Ship Positions

MSC Vienna

Last reported at 2014-Oct-28 19:31 UTC. Time now 2014-Oct-31 09:14 UTC.
Position S 19°56' E 057°28'.

Length 260.1 m; beam 32.2 m; draft 12 m.

Type: Ship. MMSI: 636090654.

Date/timePositionNaut miles runAvg speedWind from/ knotsBaromVisibWave heightAir tempDewpointWater temp
2014-Oct-28 19:31S 19°56' E 057°28'1213.0
2014-Oct-28 18:33S 20°08' E 057°29'0 0.4
2014-Oct-28 17:31S 20°08' E 057°29'0 0.0
2014-Oct-28 16:31S 20°08' E 057°29'0 0.0
2014-Oct-28 15:33S 20°08' E 057°29'0 0.0
2014-Oct-28 14:33S 20°08' E 057°29'0 0.0
2014-Oct-28 13:32S 20°08' E 057°29'0 0.0
2014-Oct-28 12:32S 20°08' E 057°29'0 0.0
2014-Oct-28 11:32S 20°08' E 057°29'0 0.0
2014-Oct-28 10:31S 20°08' E 057°29'0 0.0
2014-Oct-28 09:31S 20°08' E 057°29'0 0.0
2014-Oct-28 08:33S 20°08' E 057°29'0 0.0
2014-Oct-28 07:33S 20°08' E 057°29'0 0.0
2014-Oct-28 06:32S 20°08' E 057°29'0 0.0
2014-Oct-28 05:32S 20°08' E 057°29'0 0.0
2014-Oct-28 04:31S 20°08' E 057°29'0 0.0
2014-Oct-28 03:31S 20°08' E 057°29'0 0.0
2014-Oct-28 02:31S 20°08' E 057°29'0 0.0
2014-Oct-28 01:33S 20°08' E 057°29'3 2.5
2014-Oct-28 00:33S 20°08' E 057°27'10 9.7
2014-Oct-27 23:34S 20°13' E 057°18'0 0.5
2014-Oct-27 22:34S 20°13' E 057°18'1 0.9
2014-Oct-27 21:33S 20°12' E 057°18'1 1.2
2014-Oct-27 20:34S 20°11' E 057°18'1 1.4
2014-Oct-27 19:33S 20°10' E 057°19'1 1.4
2014-Oct-27 18:33S 20°09' E 057°20'1 1.2
2014-Oct-27 17:34S 20°07' E 057°20'1 1.3
2014-Oct-27 16:34S 20°06' E 057°20'1 1.3
2014-Oct-27 15:33S 20°05' E 057°21'1 1.3
2014-Oct-27 14:32S 20°04' E 057°21'1 1.1
2014-Oct-27 13:33S 20°03' E 057°22'1 1.1
2014-Oct-27 12:26S 20°01' E 057°22'1112.0
2014-Oct-27 11:33S 20°11' E 057°17'  
Track history (hours):
 
Tides and Currents Weather Stations Pressure Air Temp Water Temp Dewpoint Dewpoint Depression Visibility Wind Speed Wind Dir Waves Ship Positions

MSC Vienna

Last reported at 2014-Oct-28 19:31 UTC. Time now 2014-Oct-31 09:14 UTC.
Position S 19°56' E 057°28'.

Length 260.1 m; beam 32.2 m; draft 12 m.

Type: Ship. MMSI: 636090654.

Date/timePositionNaut miles runAvg speedWind from/ knotsBaromVisibWave heightAir tempDewpointWater temp
2014-Oct-28 19:31S 19°56' E 057°28'1213.0
2014-Oct-28 18:33S 20°08' E 057°29'0 0.4
2014-Oct-28 17:31S 20°08' E 057°29'0 0.0
2014-Oct-28 16:31S 20°08' E 057°29'0 0.0
2014-Oct-28 15:33S 20°08' E 057°29'0 0.0
2014-Oct-28 14:33S 20°08' E 057°29'0 0.0
2014-Oct-28 13:32S 20°08' E 057°29'0 0.0
2014-Oct-28 12:32S 20°08' E 057°29'0 0.0
2014-Oct-28 11:32S 20°08' E 057°29'0 0.0
2014-Oct-28 10:31S 20°08' E 057°29'0 0.0
2014-Oct-28 09:31S 20°08' E 057°29'0 0.0
2014-Oct-28 08:33S 20°08' E 057°29'0 0.0
2014-Oct-28 07:33S 20°08' E 057°29'0 0.0
2014-Oct-28 06:32S 20°08' E 057°29'0 0.0
2014-Oct-28 05:32S 20°08' E 057°29'0 0.0
2014-Oct-28 04:31S 20°08' E 057°29'0 0.0
2014-Oct-28 03:31S 20°08' E 057°29'0 0.0
2014-Oct-28 02:31S 20°08' E 057°29'0 0.0
2014-Oct-28 01:33S 20°08' E 057°29'3 2.5
2014-Oct-28 00:33S 20°08' E 057°27'10 9.7
2014-Oct-27 23:34S 20°13' E 057°18'0 0.5
2014-Oct-27 22:34S 20°13' E 057°18'1 0.9
2014-Oct-27 21:33S 20°12' E 057°18'1 1.2
2014-Oct-27 20:34S 20°11' E 057°18'1 1.4
2014-Oct-27 19:33S 20°10' E 057°19'1 1.4
2014-Oct-27 18:33S 20°09' E 057°20'1 1.2
2014-Oct-27 17:34S 20°07' E 057°20'1 1.3
2014-Oct-27 16:34S 20°06' E 057°20'1 1.3
2014-Oct-27 15:33S 20°05' E 057°21'1 1.3
2014-Oct-27 14:32S 20°04' E 057°21'1 1.1
2014-Oct-27 13:33S 20°03' E 057°22'1 1.1
2014-Oct-27 12:26S 20°01' E 057°22'1112.0
2014-Oct-27 11:33S 20°11' E 057°17'  

Dump ship's entire track history